Wednesday, February 20, 2019, 3:38 PM EST
Back to Local

KEWN, New Bern, Craven County Regional Airport

Location: New Bern, NC, United States Lat: 35.068
Local Time: 3:38 PM EST (20:38 GMT) Lon: -77.047
Time Zone: US/Eastern Elev: 16 ft

Show me the last for .
Show Coded

Time T Td Feel RH Dir Speed Gust Alt SLP Vis Weather Sky Remarks
2019-02-20 15:27 56 56 - 100 - Calm - 30.18 - 1 -RA BR OVC007 1-hr Precip Total: Trace
2019-02-20 15:11 55 55 - 100 40° 3 - 30.20 - 1 BR BKN004 OVC009 None
2019-02-20 14:54 56 55 - 96 40° 3 - 30.20 30.20 7 OVC004 None
2019-02-20 13:54 54 54 - 100 70° 5 - 30.22 30.22 10 OVC004 None
2019-02-20 12:54 52 51 - 96 100° 6 - 30.26 30.26 4 BR OVC004 1-hr Precip Total: Trace
6-hr Precip Total (1pm): 0.14"
6-hr Min Temp (1pm): 39.9°F
6-hr Max Temp (1pm): 52.0°F
2019-02-20 12:20 50 50 46 100 90° 10 - 30.30 - 3 BR OVC004 1-hr Precip Total: Trace
2019-02-20 12:00 49 49 45 100 60° 8 - 30.32 - 2 -RA BR OVC004 1-hr Precip Total: Trace
2019-02-20 11:54 48 48 45 100 70° 7 - 30.33 30.32 1 -RA BR OVC005 Pressure falling rapidly
1-hr Precip Total: 0.04"
2019-02-20 11:25 47 46 44 96 60° 7 - 30.36 - 1 -RA BR OVC005 1-hr Precip Total: 0.03"
2019-02-20 10:50 46 45 43 95 50° 6 - 30.36 30.36 1 -RA BR OVC004 1-hr Precip Total: 0.05"
2019-02-20 10:49 46 45 43 93 50° 7 - 30.36 - 1 RA BR OVC004 1-hr Precip Total: 0.05"
2019-02-20 10:40 46 45 42 95 50° 7 - 30.36 - 2 RA BR OVC005 1-hr Precip Total: 0.04"
2019-02-20 10:08 45 44 40 96 60° 9 - 30.36 - 1 -RA BR OVC005 1-hr Precip Total: 0.01"
2019-02-20 10:01 45 44 40 96 70° 9 - 30.36 - 2 -RA BR OVC005 1-hr Precip Total: 0.01"
2019-02-20 09:54 44 44 40 100 80° 7 - 30.36 30.36 1 -RA BR OVC005 1-hr Precip Total: 0.01"
6-hr Precip Total (10am): 0.05"
2019-02-20 09:49 45 43 41 93 70° 7 - 30.36 - 1 -RA BR OVC005 1-hr Precip Total: 0.01"
2019-02-20 09:26 43 42 38 96 60° 8 - 30.38 - 2 -RA BR OVC005 1-hr Precip Total: Trace
2019-02-20 09:05 42 41 37 95 50° 8 - 30.39 - 3 -RA BR OVC006 1-hr Precip Total: Trace
2019-02-20 08:54 42 41 37 95 70° 8 - 30.39 30.38 2 -RA BR OVC006 1-hr Precip Total: 0.03"
2019-02-20 08:30 41 41 35 100 80° 9 - 30.39 - 1 -RA BR OVC006 1-hr Precip Total: 0.02"
2019-02-20 08:14 41 40 35 95 70° 9 - 30.41 - 2 -RA BR OVC006 1-hr Precip Total: 0.01"
2019-02-20 07:54 41 40 35 95 70° 9 - 30.40 30.39 1 -RA BR OVC006 1-hr Precip Total: 0.01"
2019-02-20 07:52 41 39 36 93 70° 8 - 30.40 - 1 -RA BR OVC006 1-hr Precip Total: 0.01"
2019-02-20 06:54 40 38 34 92 60° 9 - 30.41 30.40 8 -RA OVC007 1-hr Precip Total: Trace
6-hr Precip Total (7am): 0.02"
24-hr Precip Total (7am): 0.03"
6-hr Min Temp (7am): 36.0°F
6-hr Max Temp (7am): 39.9°F
2019-02-20 05:54 39 37 32 92 80° 10 - 30.39 30.39 10 OVC008 Pressure falling rapidly
1-hr Precip Total: Trace
2019-02-20 05:08 38 36 31 92 70° 9 - 30.43 - 8 -RA BKN007 BKN050 OVC070 1-hr Precip Total: Trace
2019-02-20 04:54 38 36 30 92 70° 12 - 30.44 30.44 4 -RA BR SCT009 SCT045 OVC055 1-hr Precip Total: 0.01"
2019-02-20 04:11 37 35 29 92 50° 12 - 30.46 - 7 -RA FEW009 SCT050 OVC065 1-hr Precip Total: Trace
2019-02-20 03:54 38 35 30 89 50° 13 - 30.47 30.47 6 -RA BR FEW030 BKN060 OVC075 1-hr Precip Total: Trace
6-hr Precip Total (4am): 0.01"
2019-02-20 02:54 37 33 29 85 50° 12 - 30.49 30.48 9 -RA FEW070 OVC085 1-hr Precip Total: 0.01"
2019-02-20 01:54 37 32 29 81 40° 12 - 30.52 30.52 10 OVC085 1-hr Precip Total: Trace
2019-02-20 00:54 36 32 29 85 10° 9 - 30.56 30.55 9 -RA FEW060 BKN080 OVC095 1-hr Precip Total: Trace
6-hr Precip Total (1am): 0.01"
6-hr Min Temp (1am): 36.0°F
6-hr Max Temp (1am): 39.9°F
2019-02-19 23:54 36 31 28 81 40° 12 - 30.54 30.54 10 OVC085 1-hr Precip Total: Trace
24-hr Min Temp (12am): 36.0°F
24-hr Max Temp (12am): 50.0°F
2019-02-19 22:54 37 29 30 72 60° 9 - 30.57 30.57 7 -RA FEW055 BKN090 OVC100 1-hr Precip Total: 0.01"
2019-02-19 21:54 39 27 31 61 30° 14 - 30.60 30.60 10 -RA OVC090 1-hr Precip Total: Trace
6-hr Precip Total (10pm): 0.00"
2019-02-19 20:54 39 28 30 64 40° 16 - 30.58 30.58 10 OVC100 1-hr Precip Total: Trace
2019-02-19 19:54 40 31 33 69 60° 10 - 30.61 30.61 10 FEW075 OVC095 1-hr Precip Total: Trace
2019-02-19 18:54 40 31 34 69 60° 9 - 30.59 30.59 10 OVC095 1-hr Precip Total: Trace
6-hr Precip Total (7pm): 0.00"
6-hr Min Temp (7pm): 39.9°F
6-hr Max Temp (7pm): 44.1°F
2019-02-19 17:54 41 31 36 67 70° 8 - 30.58 30.58 10 OVC090 1-hr Precip Total: Trace
2019-02-19 16:54 42 29 36 59 50° 12 - 30.56 30.56 10 OVC110 None
2019-02-19 15:54 43 30 37 59 50° 10 - 30.53 30.53 10 OVC100 1-hr Precip Total: Trace
6-hr Precip Total (4pm): 0.00"

Support USWX by starting your Amazon purchase here.